Time;durP1;ratioP1;P1;durP2;ratioP2;P2;SDS_P1;SDS_P2;PMS_P1;PMS_P2;Temp;Humidity;BMP_temperature;BMP_pressure;BME280_temperature;BME280_humidity;BME280_pressure;Samples;Min_cycle;Max_cycle;Signal;HPM_P1;HPM_P2
2022/08/16 00:01:36;;;;;;;;;;;19.80;75.60;;;;;;4935499;29;19970;-84
2022/08/16 00:04:07;;;;;;;;;;;19.80;75.50;;;;;;4941780;28;19933;-84
2022/08/16 00:06:35;;;;;;;;;;;19.70;76.60;;;;;;4934016;29;19955;-84
2022/08/16 00:09:05;;;;;;;;;;;19.60;75.90;;;;;;4934164;29;19977;-82
2022/08/16 00:11:32;;;;;;;;;;;19.60;76.00;;;;;;4905665;29;19935;-84
2022/08/16 00:14:00;;;;;;;;;;;19.60;76.00;;;;;;4935957;29;19927;-83
2022/08/16 00:16:34;;;;;;;;;;;19.60;76.10;;;;;;4907625;29;20372;-85
2022/08/16 00:19:23;;;;;;;;;;;19.50;76.10;;;;;;4939887;29;19970;-82
2022/08/16 00:21:54;;;;;;;;;;;19.50;76.30;;;;;;4922143;29;20387;-83
2022/08/16 00:24:29;;;;;;;;;;;19.40;76.40;;;;;;4936740;29;19931;-83
2022/08/16 00:26:58;;;;;;;;;;;19.40;76.50;;;;;;4930650;29;19951;-84
2022/08/16 00:29:26;;;;;;;;;;;19.40;76.50;;;;;;4931160;29;20056;-82
2022/08/16 00:31:56;;;;;;;;;;;19.30;78.50;;;;;;4930682;29;19927;-83
2022/08/16 00:34:31;;;;;;;;;;;19.20;78.70;;;;;;4909736;29;20340;-85
2022/08/16 00:37:11;;;;;;;;;;;19.20;78.90;;;;;;4920280;29;19942;-85
2022/08/16 00:39:43;;;;;;;;;;;19.10;78.20;;;;;;4931776;29;19994;-83
2022/08/16 00:42:10;;;;;;;;;;;19.10;78.40;;;;;;4931988;29;19986;-82
2022/08/16 00:44:38;;;;;;;;;;;19.10;78.40;;;;;;4908330;29;19969;-84
2022/08/16 00:47:08;;;;;;;;;;;19.10;78.40;;;;;;4920856;29;19931;-82
2022/08/16 00:49:37;;;;;;;;;;;19.10;78.40;;;;;;4919085;29;19930;-83
2022/08/16 00:52:05;;;;;;;;;;;19.10;78.20;;;;;;4921010;29;19933;-84
2022/08/16 00:54:52;;;;;;;;;;;19.00;78.30;;;;;;4935219;29;19967;-81
2022/08/16 00:57:21;;;;;;;;;;;19.00;78.50;;;;;;4937153;29;19931;-84
2022/08/16 00:59:49;;;;;;;;;;;19.00;78.40;;;;;;4918677;29;19927;-81
2022/08/16 01:02:25;;;;;;;;;;;19.00;78.70;;;;;;4938149;29;19974;-83
2022/08/16 01:04:59;;;;;;;;;;;19.00;78.80;;;;;;4933893;29;19982;-82
2022/08/16 01:07:39;;;;;;;;;;;18.90;79.50;;;;;;4921524;29;19926;-83
2022/08/16 01:10:23;;;;;;;;;;;18.90;79.50;;;;;;4915420;29;19935;-84
2022/08/16 01:13:05;;;;;;;;;;;18.90;79.50;;;;;;4912509;29;19927;-81
2022/08/16 01:15:36;;;;;;;;;;;18.90;79.50;;;;;;4920559;29;19978;-85
2022/08/16 01:18:10;;;;;;;;;;;18.90;79.80;;;;;;4908876;29;19927;-84
2022/08/16 01:21:11;;;;;;;;;;;18.90;79.70;;;;;;4934056;29;19926;-85
2022/08/16 01:23:55;;;;;;;;;;;18.80;79.60;;;;;;4910628;29;19931;-83
2022/08/16 01:26:29;;;;;;;;;;;18.70;79.60;;;;;;4933099;29;20013;-86
2022/08/16 01:29:03;;;;;;;;;;;18.60;79.90;;;;;;4937732;29;19977;-85
2022/08/16 01:31:30;;;;;;;;;;;18.50;80.10;;;;;;4934004;29;19931;-84
2022/08/16 01:34:03;;;;;;;;;;;18.50;80.20;;;;;;4922035;29;19927;-85
2022/08/16 01:36:33;;;;;;;;;;;18.50;80.50;;;;;;4935135;29;19933;-85
2022/08/16 01:39:07;;;;;;;;;;;18.50;81.50;;;;;;4941556;29;19978;-85
2022/08/16 01:41:37;;;;;;;;;;;18.40;81.00;;;;;;4938708;29;19962;-83
2022/08/16 01:44:09;;;;;;;;;;;18.40;81.00;;;;;;4921235;29;19982;-82
2022/08/16 01:46:39;;;;;;;;;;;18.40;81.20;;;;;;4920174;29;19931;-81
2022/08/16 01:49:09;;;;;;;;;;;18.40;81.30;;;;;;4918020;29;20315;-84
2022/08/16 01:51:37;;;;;;;;;;;18.30;82.00;;;;;;4916823;29;20392;-84
2022/08/16 01:54:05;;;;;;;;;;;18.40;81.70;;;;;;4911312;29;19954;-84
2022/08/16 01:56:32;;;;;;;;;;;18.40;81.50;;;;;;4919319;29;19927;-81
2022/08/16 01:59:01;;;;;;;;;;;18.40;81.70;;;;;;4923005;29;19931;-85
2022/08/16 02:01:28;;;;;;;;;;;18.40;81.50;;;;;;4939124;29;19981;-81
2022/08/16 02:03:57;;;;;;;;;;;18.40;81.70;;;;;;4936723;29;19931;-85
2022/08/16 02:06:37;;;;;;;;;;;18.40;81.00;;;;;;4938450;29;19935;-81
2022/08/16 02:09:06;;;;;;;;;;;18.30;80.80;;;;;;4922132;29;19931;-85
2022/08/16 02:11:39;;;;;;;;;;;18.20;80.60;;;;;;4939390;29;19926;-82
2022/08/16 02:14:15;;;;;;;;;;;18.20;80.90;;;;;;4942326;29;20366;-84
2022/08/16 02:16:47;;;;;;;;;;;18.10;80.50;;;;;;4917448;29;19927;-85
2022/08/16 02:19:17;;;;;;;;;;;18.10;80.60;;;;;;4924044;29;20063;-84
2022/08/16 02:21:52;;;;;;;;;;;18.10;80.80;;;;;;4921223;29;19938;-85
2022/08/16 02:24:39;;;;;;;;;;;18.00;80.90;;;;;;4921615;29;20061;-82
2022/08/16 02:27:08;;;;;;;;;;;18.00;81.20;;;;;;4940967;29;19981;-86
2022/08/16 02:29:35;;;;;;;;;;;17.90;81.20;;;;;;4923560;29;20357;-85
2022/08/16 02:32:08;;;;;;;;;;;17.90;81.40;;;;;;4921428;29;19927;-84
2022/08/16 02:34:54;;;;;;;;;;;17.90;81.80;;;;;;4921241;29;20010;-84
2022/08/16 02:37:22;;;;;;;;;;;17.80;82.00;;;;;;4917241;29;19927;-85
2022/08/16 02:39:49;;;;;;;;;;;17.70;82.10;;;;;;4936530;29;19934;-81
2022/08/16 02:42:19;;;;;;;;;;;17.70;82.20;;;;;;4934094;29;19931;-85
2022/08/16 02:44:47;;;;;;;;;;;17.70;82.30;;;;;;4923957;28;19926;-82
2022/08/16 02:47:15;;;;;;;;;;;17.70;82.30;;;;;;4940240;29;19931;-85
2022/08/16 02:49:51;;;;;;;;;;;17.70;82.30;;;;;;4927536;29;20290;-85
2022/08/16 02:52:38;;;;;;;;;;;17.70;82.10;;;;;;4918538;29;20298;-82
2022/08/16 02:55:09;;;;;;;;;;;17.70;82.10;;;;;;4941610;28;19937;-83
2022/08/16 02:57:37;;;;;;;;;;;17.70;82.10;;;;;;4941580;29;19927;-81
2022/08/16 03:00:19;;;;;;;;;;;17.60;82.40;;;;;;4942226;29;19930;-82
2022/08/16 03:03:00;;;;;;;;;;;17.50;82.60;;;;;;4913130;29;19934;-83
2022/08/16 03:05:29;;;;;;;;;;;17.50;82.70;;;;;;4946385;29;19990;-85
2022/08/16 03:07:58;;;;;;;;;;;17.50;82.70;;;;;;4932804;29;19934;-82
2022/08/16 03:10:25;;;;;;;;;;;17.50;82.80;;;;;;4903518;29;19934;-81
2022/08/16 03:12:59;;;;;;;;;;;17.50;83.00;;;;;;4918425;29;19938;-85
2022/08/16 03:15:29;;;;;;;;;;;17.50;83.20;;;;;;4924322;29;20387;-83
2022/08/16 03:17:56;;;;;;;;;;;17.50;83.40;;;;;;4942545;28;19931;-82
2022/08/16 03:20:23;;;;;;;;;;;17.50;83.50;;;;;;4928289;29;19931;-83
2022/08/16 03:22:58;;;;;;;;;;;17.40;83.60;;;;;;4938439;29;19950;-85
2022/08/16 03:25:27;;;;;;;;;;;17.40;84.00;;;;;;4938657;29;19927;-82
2022/08/16 03:28:10;;;;;;;;;;;17.40;84.10;;;;;;4927235;28;19927;-81
2022/08/16 03:30:38;;;;;;;;;;;17.30;84.20;;;;;;4936651;29;19950;-83
2022/08/16 03:33:05;;;;;;;;;;;17.30;84.00;;;;;;4935522;29;19935;-85
2022/08/16 03:35:35;;;;;;;;;;;17.30;84.80;;;;;;4942669;29;20382;-82
2022/08/16 03:38:07;;;;;;;;;;;17.40;84.70;;;;;;4935553;29;21447;-81
2022/08/16 03:40:56;;;;;;;;;;;17.30;84.40;;;;;;4911059;29;22222;-85
2022/08/16 03:43:23;;;;;;;;;;;17.40;82.80;;;;;;4913307;29;19937;-86
2022/08/16 03:46:11;;;;;;;;;;;17.60;80.30;;;;;;4934562;29;20014;-83
2022/08/16 03:48:58;;;;;;;;;;;17.80;78.60;;;;;;4938927;29;20033;-81
2022/08/16 03:51:25;;;;;;;;;;;18.00;77.00;;;;;;4912214;29;19931;-81
2022/08/16 03:53:51;;;;;;;;;;;18.20;76.30;;;;;;4906467;29;19927;-81
2022/08/16 03:56:27;;;;;;;;;;;18.30;75.30;;;;;;4936333;29;20336;-85
2022/08/16 03:58:56;;;;;;;;;;;18.30;75.40;;;;;;4909355;29;20418;-83
2022/08/16 04:01:23;;;;;;;;;;;18.30;75.80;;;;;;4932546;29;19927;-84
2022/08/16 04:03:55;;;;;;;;;;;18.20;76.70;;;;;;4934247;29;20017;-86
2022/08/16 04:06:22;;;;;;;;;;;18.20;76.60;;;;;;4917739;29;19927;-84
2022/08/16 04:08:49;;;;;;;;;;;18.20;75.80;;;;;;4935737;29;19930;-81
2022/08/16 04:11:16;;;;;;;;;;;18.10;76.90;;;;;;4936808;29;19986;-81
2022/08/16 04:13:43;;;;;;;;;;;17.90;77.40;;;;;;4936245;29;19973;-83
2022/08/16 04:16:31;;;;;;;;;;;17.80;78.10;;;;;;4935664;29;19927;-83
2022/08/16 04:18:59;;;;;;;;;;;17.70;78.70;;;;;;4902517;29;19931;-85
2022/08/16 04:21:29;;;;;;;;;;;17.60;79.20;;;;;;4923316;29;20368;-82
2022/08/16 04:23:58;;;;;;;;;;;17.50;79.60;;;;;;4889640;29;20398;-86
2022/08/16 04:26:24;;;;;;;;;;;17.50;80.50;;;;;;4914840;29;19983;-83
2022/08/16 04:28:57;;;;;;;;;;;17.50;80.80;;;;;;4891970;29;19927;-85
2022/08/16 04:31:45;;;;;;;;;;;17.40;81.30;;;;;;4894158;29;20364;-84
2022/08/16 04:34:23;;;;;;;;;;;17.40;81.60;;;;;;4909425;29;20406;-85
2022/08/16 04:36:52;;;;;;;;;;;17.40;81.70;;;;;;4916511;29;19927;-80
2022/08/16 04:39:19;;;;;;;;;;;17.40;81.80;;;;;;4915588;29;19938;-82
2022/08/16 04:41:50;;;;;;;;;;;17.40;81.90;;;;;;4916549;29;20025;-82
2022/08/16 04:44:23;;;;;;;;;;;17.40;81.90;;;;;;4916452;29;20399;-82
2022/08/16 04:47:10;;;;;;;;;;;17.40;81.90;;;;;;4915547;29;19965;-85
2022/08/16 04:49:49;;;;;;;;;;;17.40;81.80;;;;;;4892874;29;20483;-86
2022/08/16 04:52:18;;;;;;;;;;;17.40;81.70;;;;;;4915885;29;20017;-84
2022/08/16 04:55:05;;;;;;;;;;;17.50;81.70;;;;;;4915702;29;20307;-86
2022/08/16 04:57:33;;;;;;;;;;;17.40;81.80;;;;;;4914955;29;20364;-82
2022/08/16 05:00:00;;;;;;;;;;;17.50;82.20;;;;;;4915334;29;20404;-84
2022/08/16 05:02:47;;;;;;;;;;;17.40;82.10;;;;;;4900000;29;20540;-86
2022/08/16 05:05:22;;;;;;;;;;;17.30;82.80;;;;;;4895342;29;20015;-83
2022/08/16 05:07:49;;;;;;;;;;;17.20;83.10;;;;;;4913130;29;19932;-85
2022/08/16 05:10:26;;;;;;;;;;;17.20;83.40;;;;;;4920479;29;19927;-86
2022/08/16 05:12:55;;;;;;;;;;;17.20;83.40;;;;;;4913058;29;19938;-84
2022/08/16 05:15:22;;;;;;;;;;;17.30;83.40;;;;;;4902337;29;19935;-82
2022/08/16 05:17:50;;;;;;;;;;;17.30;83.50;;;;;;4917104;29;19939;-84
2022/08/16 05:20:25;;;;;;;;;;;17.30;82.80;;;;;;4906167;29;19954;-86
2022/08/16 05:23:13;;;;;;;;;;;17.50;80.50;;;;;;4919949;29;20038;-82
2022/08/16 05:25:40;;;;;;;;;;;17.70;77.60;;;;;;4919241;29;19973;-85
2022/08/16 05:28:15;;;;;;;;;;;17.90;76.10;;;;;;4932520;29;20288;-82
2022/08/16 05:30:42;;;;;;;;;;;18.10;74.50;;;;;;4910210;29;19931;-83
2022/08/16 05:33:10;;;;;;;;;;;18.30;74.00;;;;;;4941277;29;19934;-83
2022/08/16 05:35:43;;;;;;;;;;;18.40;72.60;;;;;;4922569;29;20384;-82
2022/08/16 05:38:26;;;;;;;;;;;18.70;70.30;;;;;;4916996;29;19970;-85
2022/08/16 05:41:05;;;;;;;;;;;18.90;69.00;;;;;;4922053;29;19927;-84
2022/08/16 05:43:32;;;;;;;;;;;19.20;68.00;;;;;;4935961;29;19931;-82
2022/08/16 05:46:13;;;;;;;;;;;19.30;67.70;;;;;;4932428;29;20339;-85
2022/08/16 05:49:00;;;;;;;;;;;19.40;67.00;;;;;;4915085;29;19962;-86
2022/08/16 05:51:35;;;;;;;;;;;19.60;66.00;;;;;;4910989;29;19934;-84
2022/08/16 05:54:06;;;;;;;;;;;19.70;64.90;;;;;;4917151;29;19934;-85
2022/08/16 05:56:33;;;;;;;;;;;19.80;64.60;;;;;;4921116;29;19931;-86
2022/08/16 05:59:03;;;;;;;;;;;19.90;63.70;;;;;;4911784;29;20382;-83
2022/08/16 06:01:32;;;;;;;;;;;20.00;63.20;;;;;;4937965;29;19927;-82
2022/08/16 06:04:05;;;;;;;;;;;20.10;63.50;;;;;;4938600;29;19974;-85
2022/08/16 06:06:40;;;;;;;;;;;20.20;63.10;;;;;;4917118;29;19937;-85
2022/08/16 06:09:21;;;;;;;;;;;20.20;63.00;;;;;;4924840;29;19926;-82
2022/08/16 06:11:48;;;;;;;;;;;20.30;62.70;;;;;;4920032;29;19958;-82
2022/08/16 06:14:17;;;;;;;;;;;20.40;63.00;;;;;;4933823;29;19927;-84
2022/08/16 06:16:44;;;;;;;;;;;20.40;62.50;;;;;;4926949;29;20391;-86
2022/08/16 06:19:19;;;;;;;;;;;20.40;62.40;;;;;;4927409;29;20345;-86
2022/08/16 06:21:49;;;;;;;;;;;20.40;61.80;;;;;;4919154;29;19931;-84
2022/08/16 06:24:21;;;;;;;;;;;20.50;61.60;;;;;;4918414;29;19933;-87
2022/08/16 06:27:08;;;;;;;;;;;20.50;61.60;;;;;;4935795;29;19962;-82
2022/08/16 06:29:35;;;;;;;;;;;20.60;61.30;;;;;;4917533;29;19941;-82
2022/08/16 06:32:03;;;;;;;;;;;20.70;61.00;;;;;;4935002;29;19982;-83
2022/08/16 06:34:30;;;;;;;;;;;20.80;59.80;;;;;;4921313;29;19961;-83
2022/08/16 06:37:17;;;;;;;;;;;20.90;59.80;;;;;;4917738;29;19966;-82
2022/08/16 06:39:44;;;;;;;;;;;21.10;58.80;;;;;;4920636;29;19937;-86
2022/08/16 06:42:16;;;;;;;;;;;21.20;62.80;;;;;;4912045;29;20306;-84
2022/08/16 06:44:44;;;;;;;;;;;21.40;64.90;;;;;;4914738;29;20388;-84
2022/08/16 06:47:12;;;;;;;;;;;21.50;65.20;;;;;;4911468;29;19952;-86
2022/08/16 06:49:43;;;;;;;;;;;21.60;66.00;;;;;;4919199;29;19970;-83
2022/08/16 06:52:20;;;;;;;;;;;21.70;67.40;;;;;;4935634;29;19935;-83
2022/08/16 06:55:08;;;;;;;;;;;21.80;66.70;;;;;;4921226;29;19958;-82
2022/08/16 06:57:40;;;;;;;;;;;21.90;66.50;;;;;;4936372;29;19938;-83
2022/08/16 07:00:14;;;;;;;;;;;21.90;66.50;;;;;;4936066;29;19974;-83
2022/08/16 07:02:52;;;;;;;;;;;22.00;66.60;;;;;;4915429;29;19978;-83
2022/08/16 07:05:20;;;;;;;;;;;22.10;66.20;;;;;;4910769;29;19934;-84
2022/08/16 07:07:52;;;;;;;;;;;22.10;65.90;;;;;;4915619;29;19931;-83
2022/08/16 07:10:20;;;;;;;;;;;22.20;65.80;;;;;;4916072;29;20029;-86
2022/08/16 07:12:52;;;;;;;;;;;22.30;63.50;;;;;;4912682;29;19978;-86
2022/08/16 07:15:30;;;;;;;;;;;22.40;64.60;;;;;;4915037;29;19934;-86
2022/08/16 07:17:59;;;;;;;;;;;22.40;64.60;;;;;;4915839;29;19983;-86
2022/08/16 07:20:26;;;;;;;;;;;22.50;63.60;;;;;;4922555;29;19927;-86
2022/08/16 07:23:12;;;;;;;;;;;22.60;63.70;;;;;;4934800;29;20795;-86
2022/08/16 07:25:39;;;;;;;;;;;22.70;63.50;;;;;;4920183;29;19931;-85
2022/08/16 07:28:06;;;;;;;;;;;22.80;63.50;;;;;;4935244;29;20410;-84
2022/08/16 07:30:38;;;;;;;;;;;22.90;61.80;;;;;;4916281;29;19928;-85
2022/08/16 07:33:13;;;;;;;;;;;23.10;62.40;;;;;;4936557;29;19982;-86
2022/08/16 07:35:42;;;;;;;;;;;23.20;61.60;;;;;;4916827;29;20311;-86
2022/08/16 07:38:15;;;;;;;;;;;23.30;61.90;;;;;;4907968;29;19931;-86
2022/08/16 07:40:45;;;;;;;;;;;23.40;60.70;;;;;;4934852;29;19927;-86
2022/08/16 07:43:27;;;;;;;;;;;23.60;61.50;;;;;;4914917;29;19955;-86
2022/08/16 07:45:55;;;;;;;;;;;23.70;60.90;;;;;;4909227;29;19974;-86
2022/08/16 07:48:22;;;;;;;;;;;23.80;60.20;;;;;;4913230;29;20340;-86
2022/08/16 07:50:50;;;;;;;;;;;24.00;59.80;;;;;;4941293;29;20063;-86
2022/08/16 07:53:25;;;;;;;;;;;24.10;58.30;;;;;;4934755;29;19931;-85
2022/08/16 07:55:55;;;;;;;;;;;24.20;57.20;;;;;;4925986;29;19978;-83
2022/08/16 07:58:22;;;;;;;;;;;24.30;57.90;;;;;;4923703;29;19927;-83
2022/08/16 08:01:04;;;;;;;;;;;24.40;56.40;;;;;;4918603;29;19994;-82
2022/08/16 08:03:39;;;;;;;;;;;24.40;56.70;;;;;;4920399;29;19926;-86
2022/08/16 08:06:13;;;;;;;;;;;24.50;56.60;;;;;;4933363;29;19985;-85
2022/08/16 08:08:41;;;;;;;;;;;24.60;56.50;;;;;;4934901;29;19927;-84
2022/08/16 08:11:17;;;;;;;;;;;24.70;56.20;;;;;;4921170;29;19927;-85
2022/08/16 08:13:44;;;;;;;;;;;24.80;56.60;;;;;;4915266;29;19955;-84
2022/08/16 08:16:11;;;;;;;;;;;24.90;55.60;;;;;;4923938;29;19934;-86
2022/08/16 08:18:45;;;;;;;;;;;25.10;56.20;;;;;;4920791;29;19931;-83
2022/08/16 08:21:26;;;;;;;;;;;25.20;55.40;;;;;;4907413;29;19934;-84
2022/08/16 08:24:14;;;;;;;;;;;25.40;54.80;;;;;;4919509;29;20061;-84
2022/08/16 08:26:41;;;;;;;;;;;25.50;54.30;;;;;;4920405;29;20025;-84
2022/08/16 08:29:08;;;;;;;;;;;25.60;53.20;;;;;;4933071;29;19979;-82
2022/08/16 08:31:40;;;;;;;;;;;25.70;53.50;;;;;;4911112;29;20343;-83
2022/08/16 08:34:08;;;;;;;;;;;25.70;54.10;;;;;;4917475;29;19958;-86
2022/08/16 08:36:38;;;;;;;;;;;25.90;53.80;;;;;;4922678;29;20013;-81
2022/08/16 08:39:06;;;;;;;;;;;26.00;52.80;;;;;;4933511;29;20451;-82
2022/08/16 08:41:40;;;;;;;;;;;26.10;52.30;;;;;;4918440;29;19931;-82
2022/08/16 08:44:08;;;;;;;;;;;26.20;51.70;;;;;;4936938;29;19927;-87
2022/08/16 08:46:57;;;;;;;;;;;26.20;51.90;;;;;;4912286;29;19985;-83
2022/08/16 08:49:28;;;;;;;;;;;26.20;52.80;;;;;;4933391;29;19926;-82
2022/08/16 08:52:14;;;;;;;;;;;26.30;51.30;;;;;;4929092;29;19941;-83
2022/08/16 08:55:06;;;;;;;;;;;26.30;51.80;;;;;;4912928;29;19927;-84
2022/08/16 08:57:38;;;;;;;;;;;26.40;50.30;;;;;;4927808;29;20375;-85
2022/08/16 09:00:06;;;;;;;;;;;26.40;50.40;;;;;;4910557;29;19933;-85
2022/08/16 09:02:41;;;;;;;;;;;26.50;50.30;;;;;;4915694;29;20025;-81
2022/08/16 09:05:08;;;;;;;;;;;26.50;50.20;;;;;;4918899;29;20273;-81
2022/08/16 09:07:42;;;;;;;;;;;26.60;50.30;;;;;;4917837;29;19927;-85
2022/08/16 09:10:29;;;;;;;;;;;26.80;50.30;;;;;;4935140;29;19974;-84
2022/08/16 09:12:59;;;;;;;;;;;26.90;50.00;;;;;;4916538;29;19927;-79
2022/08/16 09:15:26;;;;;;;;;;;26.90;49.30;;;;;;4937704;29;19927;-84
2022/08/16 09:17:59;;;;;;;;;;;26.90;49.90;;;;;;4938318;29;20342;-83
2022/08/16 09:20:47;;;;;;;;;;;27.00;49.50;;;;;;4926443;29;19970;-85
2022/08/16 09:23:26;;;;;;;;;;;27.00;49.30;;;;;;4912713;29;19927;-85
2022/08/16 09:25:53;;;;;;;;;;;27.00;48.80;;;;;;4921395;29;19949;-84
2022/08/16 09:28:20;;;;;;;;;;;27.00;49.70;;;;;;4921329;29;19927;-84
2022/08/16 09:31:07;;;;;;;;;;;27.20;50.30;;;;;;4918984;29;20341;-80
2022/08/16 09:33:36;;;;;;;;;;;27.40;49.40;;;;;;4935371;29;20291;-85
2022/08/16 09:36:06;;;;;;;;;;;27.50;49.20;;;;;;4921979;29;20336;-85
2022/08/16 09:38:53;;;;;;;;;;;27.60;48.40;;;;;;4937184;29;20010;-84
2022/08/16 09:41:25;;;;;;;;;;;27.70;48.40;;;;;;4937895;29;19931;-85
2022/08/16 09:43:53;;;;;;;;;;;27.90;48.40;;;;;;4920436;29;20367;-85
2022/08/16 09:46:26;;;;;;;;;;;27.90;47.70;;;;;;4914569;29;19931;-83
2022/08/16 09:49:13;;;;;;;;;;;27.90;48.20;;;;;;4934877;29;20460;-77
2022/08/16 09:51:41;;;;;;;;;;;28.10;49.10;;;;;;4912670;29;20296;-83
2022/08/16 09:54:11;;;;;;;;;;;28.20;48.40;;;;;;4921098;29;20299;-83
2022/08/16 09:56:42;;;;;;;;;;;28.40;47.50;;;;;;4937452;29;20280;-82
2022/08/16 09:59:20;;;;;;;;;;;28.40;47.70;;;;;;4931166;29;20299;-79
2022/08/16 10:01:49;;;;;;;;;;;28.50;48.30;;;;;;4934576;29;19970;-82
2022/08/16 10:04:18;;;;;;;;;;;28.70;47.00;;;;;;4910096;29;20014;-78
2022/08/16 10:07:00;;;;;;;;;;;28.80;47.10;;;;;;4921870;29;19931;-83
2022/08/16 10:09:37;;;;;;;;;;;28.90;47.10;;;;;;4935670;29;19969;-82
2022/08/16 10:15:15;;;;;;;;;;;29.30;45.80;;;;;;4935531;29;19930;-80
2022/08/16 10:17:44;;;;;;;;;;;29.30;45.60;;;;;;4918095;29;19998;-82
2022/08/16 10:20:29;;;;;;;;;;;29.30;45.40;;;;;;4927030;29;20502;-77
2022/08/16 10:22:56;;;;;;;;;;;29.40;44.50;;;;;;4912351;29;20302;-83
2022/08/16 10:25:32;;;;;;;;;;;29.50;45.10;;;;;;4936636;29;19927;-84
2022/08/16 10:28:19;;;;;;;;;;;29.40;44.70;;;;;;4919006;29;20017;-83
2022/08/16 10:30:55;;;;;;;;;;;29.40;44.90;;;;;;4940224;29;19930;-81
2022/08/16 10:33:26;;;;;;;;;;;29.40;44.80;;;;;;4936223;29;19986;-83
2022/08/16 10:35:55;;;;;;;;;;;29.50;44.60;;;;;;4924092;29;19931;-84
2022/08/16 10:38:29;;;;;;;;;;;29.50;44.70;;;;;;4920702;29;19970;-85
2022/08/16 10:41:02;;;;;;;;;;;29.40;44.40;;;;;;4917309;29;19927;-85
2022/08/16 10:43:29;;;;;;;;;;;29.50;44.90;;;;;;4920140;29;19943;-80
2022/08/16 10:45:58;;;;;;;;;;;29.60;44.80;;;;;;4918221;29;19927;-84
2022/08/16 10:48:27;;;;;;;;;;;29.60;44.00;;;;;;4935227;29;19934;-80
2022/08/16 10:50:58;;;;;;;;;;;29.60;44.60;;;;;;4935936;29;19985;-85
2022/08/16 10:53:29;;;;;;;;;;;29.70;44.30;;;;;;4919164;29;20443;-84
2022/08/16 10:56:00;;;;;;;;;;;29.80;45.10;;;;;;4912147;29;20336;-85
2022/08/16 10:58:29;;;;;;;;;;;30.00;44.30;;;;;;4918716;29;19934;-84
2022/08/16 11:01:01;;;;;;;;;;;30.00;44.30;;;;;;4931441;29;19927;-84
2022/08/16 11:03:48;;;;;;;;;;;30.20;43.50;;;;;;4922870;29;20360;-80
2022/08/16 11:06:23;;;;;;;;;;;30.20;43.50;;;;;;4932918;29;20303;-83
2022/08/16 11:08:54;;;;;;;;;;;30.20;43.20;;;;;;4920394;29;20357;-83
2022/08/16 11:11:41;;;;;;;;;;;30.40;43.70;;;;;;4921797;29;20014;-83
2022/08/16 11:14:28;;;;;;;;;;;30.50;42.30;;;;;;4910072;29;19966;-83
2022/08/16 11:16:58;;;;;;;;;;;30.60;42.40;;;;;;4935811;29;20277;-82
2022/08/16 11:19:34;;;;;;;;;;;30.70;42.60;;;;;;4931887;29;20447;-82
2022/08/16 11:22:21;;;;;;;;;;;30.70;41.50;;;;;;4910640;29;19962;-83
2022/08/16 11:25:08;;;;;;;;;;;30.70;41.70;;;;;;4934484;29;20009;-83
2022/08/16 11:27:55;;;;;;;;;;;30.80;41.90;;;;;;4920404;28;20009;-83
2022/08/16 11:30:24;;;;;;;;;;;30.80;41.90;;;;;;4935931;29;19926;-77
2022/08/16 11:33:05;;;;;;;;;;;31.00;41.60;;;;;;4935476;29;20026;-82
2022/08/16 11:35:32;;;;;;;;;;;31.00;41.50;;;;;;4917449;29;19927;-84
2022/08/16 11:38:21;;;;;;;;;;;31.00;40.50;;;;;;4925560;29;20017;-81
2022/08/16 11:41:08;;;;;;;;;;;30.90;41.40;;;;;;4929435;29;20365;-82
2022/08/16 11:43:36;;;;;;;;;;;31.10;41.10;;;;;;4920898;29;19931;-80
2022/08/16 11:46:06;;;;;;;;;;;31.10;41.00;;;;;;4926426;29;19926;-84
2022/08/16 11:48:53;;;;;;;;;;;31.00;40.60;;;;;;4923539;29;20017;-85
2022/08/16 11:51:20;;;;;;;;;;;31.10;41.10;;;;;;4931357;29;19930;-81
2022/08/16 11:53:47;;;;;;;;;;;31.20;40.70;;;;;;4921873;29;19966;-83
2022/08/16 11:56:14;;;;;;;;;;;31.30;40.20;;;;;;4917178;29;19931;-86
2022/08/16 11:58:45;;;;;;;;;;;31.50;40.40;;;;;;4923518;29;19978;-80
2022/08/16 12:01:22;;;;;;;;;;;31.60;39.70;;;;;;4918374;29;20346;-86
2022/08/16 12:03:55;;;;;;;;;;;31.70;38.90;;;;;;4919414;29;20049;-84
2022/08/16 12:06:22;;;;;;;;;;;31.70;38.80;;;;;;4918468;29;20311;-83
2022/08/16 12:08:56;;;;;;;;;;;31.70;38.80;;;;;;4932885;29;19959;-85
2022/08/16 12:11:27;;;;;;;;;;;31.70;39.20;;;;;;4903287;29;20455;-84
2022/08/16 12:13:58;;;;;;;;;;;31.90;39.80;;;;;;4921783;29;19927;-84
2022/08/16 12:16:25;;;;;;;;;;;32.00;38.80;;;;;;4931391;29;19926;-85
2022/08/16 12:19:00;;;;;;;;;;;32.10;39.20;;;;;;4912611;28;19934;-85
2022/08/16 12:21:27;;;;;;;;;;;32.10;39.20;;;;;;4934357;29;19931;-85
2022/08/16 12:24:13;;;;;;;;;;;32.10;39.00;;;;;;4913582;29;20478;-86
2022/08/16 12:26:41;;;;;;;;;;;32.30;38.50;;;;;;4876876;29;19926;-80
2022/08/16 12:29:09;;;;;;;;;;;32.40;38.90;;;;;;4933200;29;19937;-84
2022/08/16 12:31:36;;;;;;;;;;;32.60;37.70;;;;;;4919712;29;19951;-84
2022/08/16 12:34:23;;;;;;;;;;;32.60;37.70;;;;;;4935814;29;19949;-84
2022/08/16 12:36:55;;;;;;;;;;;32.80;37.70;;;;;;4924376;29;19931;-86
2022/08/16 12:39:22;;;;;;;;;;;32.70;37.00;;;;;;4930758;29;19926;-84
2022/08/16 12:41:55;;;;;;;;;;;32.80;38.00;;;;;;4936454;28;19942;-83
2022/08/16 12:44:25;;;;;;;;;;;32.80;37.20;;;;;;4920777;29;19930;-86
2022/08/16 12:49:42;;;;;;;;;;;33.10;36.00;;;;;;4934519;29;19931;-85
2022/08/16 12:52:11;;;;;;;;;;;33.30;37.50;;;;;;4918167;29;19931;-84
2022/08/16 12:54:58;;;;;;;;;;;33.50;37.50;;;;;;4933241;28;20416;-86
2022/08/16 12:57:25;;;;;;;;;;;33.70;36.70;;;;;;4923799;29;20369;-85
2022/08/16 13:00:11;;;;;;;;;;;33.50;35.70;;;;;;4919094;29;19969;-87
2022/08/16 13:02:52;;;;;;;;;;;33.60;36.10;;;;;;4919817;29;20029;-80
2022/08/16 13:05:19;;;;;;;;;;;33.40;36.70;;;;;;4934466;29;19955;-81
2022/08/16 13:07:47;;;;;;;;;;;33.50;35.70;;;;;;4920378;29;19927;-84
2022/08/16 13:10:17;;;;;;;;;;;33.30;35.70;;;;;;4918178;29;19927;-83
2022/08/16 13:13:04;;;;;;;;;;;33.40;35.80;;;;;;4936690;29;19927;-85
2022/08/16 13:15:32;;;;;;;;;;;33.40;35.00;;;;;;4934636;29;19978;-84
2022/08/16 13:18:02;;;;;;;;;;;33.50;36.50;;;;;;4932054;29;19927;-84
2022/08/16 13:20:49;;;;;;;;;;;33.70;35.90;;;;;;4921277;29;19973;-85
2022/08/16 13:23:16;;;;;;;;;;;33.70;35.50;;;;;;4910837;29;20021;-83
2022/08/16 13:25:44;;;;;;;;;;;33.40;36.10;;;;;;4916762;28;19927;-83
2022/08/16 13:28:16;;;;;;;;;;;33.10;37.30;;;;;;4934002;29;19941;-85
2022/08/16 13:30:46;;;;;;;;;;;33.30;37.90;;;;;;4923783;28;19930;-85
2022/08/16 13:33:15;;;;;;;;;;;33.40;36.60;;;;;;4914472;29;19931;-83
2022/08/16 13:35:52;;;;;;;;;;;33.30;36.30;;;;;;4918621;29;19926;-84
2022/08/16 13:38:22;;;;;;;;;;;33.10;35.70;;;;;;4919901;29;19927;-79
2022/08/16 13:40:54;;;;;;;;;;;32.70;36.00;;;;;;4933169;29;19962;-79
2022/08/16 13:43:26;;;;;;;;;;;32.30;36.80;;;;;;4916589;29;20383;-86
2022/08/16 13:45:55;;;;;;;;;;;31.90;37.00;;;;;;4938235;29;19927;-83
2022/08/16 13:48:23;;;;;;;;;;;31.60;37.70;;;;;;4926991;29;20040;-80
2022/08/16 13:50:54;;;;;;;;;;;31.50;39.10;;;;;;4939468;29;19973;-82
2022/08/16 13:53:23;;;;;;;;;;;31.60;39.60;;;;;;4926453;29;19964;-81
2022/08/16 13:55:51;;;;;;;;;;;31.90;39.30;;;;;;4943585;28;19980;-80
2022/08/16 13:58:25;;;;;;;;;;;32.00;38.70;;;;;;4945025;29;19942;-83
2022/08/16 14:01:12;;;;;;;;;;;32.00;39.40;;;;;;4922493;29;20013;-83
2022/08/16 14:03:39;;;;;;;;;;;32.10;39.50;;;;;;4927727;29;19931;-80
2022/08/16 14:06:08;;;;;;;;;;;32.20;38.10;;;;;;4922516;29;19982;-85
2022/08/16 14:08:40;;;;;;;;;;;32.40;38.30;;;;;;4920721;29;19926;-84
2022/08/16 14:11:09;;;;;;;;;;;32.90;38.60;;;;;;4944249;29;19935;-86
2022/08/16 14:13:38;;;;;;;;;;;33.20;37.00;;;;;;4943259;28;19926;-79
2022/08/16 14:16:05;;;;;;;;;;;33.30;36.40;;;;;;4924145;29;19934;-80
2022/08/16 14:18:50;;;;;;;;;;;33.60;36.70;;;;;;4907756;29;19954;-83
2022/08/16 14:21:19;;;;;;;;;;;33.80;35.80;;;;;;4925674;29;19938;-80
2022/08/16 14:23:50;;;;;;;;;;;33.60;35.30;;;;;;4932109;29;19934;-81
2022/08/16 14:26:19;;;;;;;;;;;33.50;35.20;;;;;;4917968;29;19954;-80
2022/08/16 14:28:51;;;;;;;;;;;33.40;35.50;;;;;;4932723;29;19927;-83
2022/08/16 14:31:20;;;;;;;;;;;33.50;36.20;;;;;;4920670;29;19990;-83
2022/08/16 14:33:49;;;;;;;;;;;33.60;35.70;;;;;;4919614;29;19930;-85
2022/08/16 14:36:16;;;;;;;;;;;33.80;35.50;;;;;;4920720;29;20315;-84
2022/08/16 14:38:50;;;;;;;;;;;33.80;35.40;;;;;;4917425;29;20302;-79
2022/08/16 14:41:17;;;;;;;;;;;33.80;35.60;;;;;;4938665;29;19934;-83
2022/08/16 14:43:44;;;;;;;;;;;33.80;35.00;;;;;;4918945;29;20391;-85
2022/08/16 14:46:11;;;;;;;;;;;33.80;35.50;;;;;;4915593;29;19927;-80
2022/08/16 14:48:38;;;;;;;;;;;33.80;34.60;;;;;;4939943;29;20021;-80
2022/08/16 14:51:05;;;;;;;;;;;33.80;34.80;;;;;;4913943;29;19935;-80
2022/08/16 14:53:34;;;;;;;;;;;34.00;34.90;;;;;;4921709;29;19935;-80
2022/08/16 14:56:01;;;;;;;;;;;34.30;34.70;;;;;;4925357;29;19934;-84